Time;durP1;ratioP1;P1;durP2;ratioP2;P2;SDS_P1;SDS_P2;PMS_P1;PMS_P2;Temp;Humidity;BMP_temperature;BMP_pressure;BME280_temperature;BME280_humidity;BME280_pressure;Samples;Min_cycle;Max_cycle;Signal;HPM_P1;HPM_P2
2024/01/31 00:00:24;;;;;;;27.93;16.60;;;;;;;-0.93;100.00;102218.06;5052207;28;20042;-67
2024/01/31 00:02:50;;;;;;;27.53;16.17;;;;;;;-0.86;100.00;102225.72;5052109;28;20036;-66
2024/01/31 00:05:16;;;;;;;28.40;15.17;;;;;;;-0.95;100.00;102198.13;5052165;28;20032;-66
2024/01/31 00:07:42;;;;;;;35.43;17.90;;;;;;;-0.99;100.00;102199.13;5051819;28;20134;-68
2024/01/31 00:10:09;;;;;;;28.57;14.97;;;;;;;-1.09;100.00;102177.69;5051993;28;20124;-68
2024/01/31 00:12:34;;;;;;;24.97;16.13;;;;;;;-0.86;100.00;102208.28;5052625;28;20267;-67
2024/01/31 00:14:59;;;;;;;31.50;16.13;;;;;;;-0.90;100.00;102206.66;5053250;28;20299;-65
2024/01/31 00:17:25;;;;;;;25.03;14.67;;;;;;;-0.78;100.00;102215.84;5034852;28;20450;-66
2024/01/31 00:19:50;;;;;;;27.13;17.53;;;;;;;-0.86;100.00;102196.97;5052674;28;20095;-67
2024/01/31 00:22:16;;;;;;;25.17;15.13;;;;;;;-0.93;100.00;102171.00;5051469;28;20040;-68
2024/01/31 00:24:42;;;;;;;24.23;15.07;;;;;;;-0.75;100.00;102194.81;5050173;28;20480;-68
2024/01/31 00:27:07;;;;;;;23.43;14.70;;;;;;;-0.74;100.00;102188.66;5050303;28;20048;-69
2024/01/31 00:29:32;;;;;;;23.33;14.50;;;;;;;-0.82;100.00;102154.09;5051653;28;20435;-69
2024/01/31 00:31:58;;;;;;;24.30;14.60;;;;;;;-0.82;100.00;102149.72;5049734;28;20041;-69
2024/01/31 00:34:23;;;;;;;23.93;15.23;;;;;;;-0.64;100.00;102171.72;5051627;28;20044;-68
2024/01/31 00:36:50;;;;;;;27.03;14.20;;;;;;;-0.94;100.00;102105.69;5051369;28;20120;-66
2024/01/31 00:39:15;;;;;;;24.20;13.23;;;;;;;-0.63;100.00;102152.50;5051934;28;20037;-67
2024/01/31 00:41:41;;;;;;;24.27;14.00;;;;;;;-0.77;100.00;102110.31;5051383;28;20272;-67
2024/01/31 00:44:06;;;;;;;19.30;12.63;;;;;;;-1.08;100.00;102064.38;5052257;28;20078;-69
2024/01/31 00:46:32;;;;;;;21.70;12.63;;;;;;;-0.55;100.00;102140.00;5051566;28;20041;-69
2024/01/31 00:48:57;;;;;;;20.93;12.80;;;;;;;-0.54;100.00;102136.47;5050119;28;20040;-66
2024/01/31 00:51:23;;;;;;;19.27;11.80;;;;;;;-0.62;100.00;102113.19;5049965;28;20041;-69
2024/01/31 00:53:48;;;;;;;29.43;14.23;;;;;;;-0.53;100.00;102117.25;5051402;28;20033;-68
2024/01/31 00:56:14;;;;;;;20.63;13.17;;;;;;;-0.59;100.00;102112.22;5051230;28;20129;-68
2024/01/31 00:58:39;;;;;;;23.93;13.57;;;;;;;-0.67;100.00;102103.81;5051131;28;20044;-68
2024/01/31 01:01:05;;;;;;;20.27;12.97;;;;;;;-0.56;100.00;102111.28;5051277;28;20599;-67
2024/01/31 01:03:30;;;;;;;25.60;14.87;;;;;;;-0.75;100.00;102075.31;5051305;28;20048;-67
2024/01/31 01:05:55;;;;;;;23.77;13.63;;;;;;;-0.64;100.00;102095.84;5051168;28;20052;-69
2024/01/31 01:08:21;;;;;;;23.87;14.00;;;;;;;-0.58;100.00;102106.06;5051635;28;20449;-68
2024/01/31 01:10:46;;;;;;;25.07;15.23;;;;;;;-0.65;100.00;102075.81;5051634;28;20040;-68
2024/01/31 01:13:12;;;;;;;24.00;15.30;;;;;;;-0.54;100.00;102094.59;5051153;28;20054;-67
2024/01/31 01:15:37;;;;;;;21.07;13.83;;;;;;;-0.69;100.00;102063.78;5051160;28;20036;-66
2024/01/31 01:18:03;;;;;;;17.73;12.77;;;;;;;-0.54;100.00;102083.28;5051182;28;20116;-67
2024/01/31 01:20:32;;;;;;;26.73;14.27;;;;;;;-0.62;100.00;102055.63;5049554;28;20053;-68
2024/01/31 01:22:58;;;;;;;24.07;12.43;;;;;;;-0.42;100.00;102085.41;5051186;28;20400;-67
2024/01/31 01:25:23;;;;;;;25.00;15.93;;;;;;;-0.50;100.00;102051.69;5051599;28;20271;-67
2024/01/31 01:27:52;;;;;;;25.23;13.87;;;;;;;-0.37;100.00;102065.13;5051753;28;20041;-68
2024/01/31 01:30:21;;;;;;;22.15;12.98;;;;;;;-0.44;100.00;102043.59;5050126;28;20139;-67
2024/01/31 01:32:48;;;;;;;22.60;13.63;;;;;;;-0.28;100.00;102056.09;5050771;28;20060;-68
2024/01/31 01:35:14;;;;;;;20.70;12.53;;;;;;;-0.34;100.00;102054.53;5051137;28;20303;-67
2024/01/31 01:37:40;;;;;;;18.80;12.40;;;;;;;-0.51;100.00;102015.97;5051435;28;20045;-66
2024/01/31 01:40:07;;;;;;;21.73;13.30;;;;;;;-0.43;100.00;102032.22;5051455;28;20472;-69
2024/01/31 01:42:40;;;;;;;25.77;12.97;;;;;;;-0.42;100.00;102020.81;5052745;28;20627;-68
2024/01/31 01:45:06;;;;;;;21.10;13.63;;;;;;;-0.63;100.00;101998.13;5054212;28;20696;-68
2024/01/31 01:47:31;;;;;;;22.20;13.27;;;;;;;-0.58;100.00;102011.00;5055411;28;20303;-66
2024/01/31 01:49:57;;;;;;;22.63;13.83;;;;;;;-0.69;100.00;101991.38;5055892;28;20484;-66
2024/01/31 01:52:25;;;;;;;25.40;14.27;;;;;;;-0.43;100.00;102013.88;5054786;28;20135;-68
2024/01/31 01:54:50;;;;;;;23.50;13.13;;;;;;;-0.39;100.00;101996.28;5054578;28;20040;-67
2024/01/31 01:57:16;;;;;;;18.80;12.53;;;;;;;-0.28;100.00;101995.88;5053427;28;21150;-66
2024/01/31 01:59:42;;;;;;;20.77;13.23;;;;;;;-0.34;100.00;101965.53;5054344;28;20401;-67
2024/01/31 02:02:08;;;;;;;20.63;13.30;;;;;;;-0.23;100.00;101984.28;5054414;28;20037;-69
2024/01/31 02:04:34;;;;;;;22.10;14.33;;;;;;;-0.37;100.00;101952.59;5054623;28;20743;-66
2024/01/31 02:07:00;;;;;;;21.30;14.13;;;;;;;-0.20;100.00;101975.44;5054457;28;20289;-68
2024/01/31 02:09:26;;;;;;;23.30;13.63;;;;;;;-0.32;100.00;101943.63;5054253;28;20060;-65
2024/01/31 02:11:51;;;;;;;18.47;12.40;;;;;;;-0.19;100.00;101946.59;5053011;28;20276;-67
2024/01/31 02:14:18;;;;;;;19.47;12.07;;;;;;;-0.32;100.00;101919.22;5054265;28;20492;-66
2024/01/31 02:16:44;;;;;;;19.43;13.20;;;;;;;-0.21;100.00;101944.94;5053907;28;20048;-67
2024/01/31 02:19:10;;;;;;;20.60;13.40;;;;;;;-0.19;100.00;101932.66;5053663;28;20299;-67
2024/01/31 02:21:37;;;;;;;23.83;13.57;;;;;;;-0.16;100.00;101924.66;5054072;28;20778;-66
2024/01/31 02:24:02;;;;;;;20.90;14.47;;;;;;;-0.15;100.00;101918.50;5036126;28;20131;-67
2024/01/31 02:26:28;;;;;;;22.03;14.37;;;;;;;-0.42;100.00;101861.19;5054112;28;20703;-69
2024/01/31 02:28:53;;;;;;;22.93;14.43;;;;;;;-0.04;100.00;101921.50;5053874;28;20028;-67
2024/01/31 02:31:19;;;;;;;20.33;12.43;;;;;;;-0.05;100.00;101919.78;5053578;28;20041;-66
2024/01/31 02:33:44;;;;;;;20.77;13.77;;;;;;;-0.13;100.00;101893.94;5053601;28;20033;-65
2024/01/31 02:36:10;;;;;;;18.80;12.87;;;;;;;0.02;100.00;101905.53;5052418;28;20139;-67
2024/01/31 02:38:35;;;;;;;19.97;13.07;;;;;;;-0.01;100.00;101892.56;5052345;28;20033;-67
2024/01/31 02:41:01;;;;;;;19.20;13.37;;;;;;;-0.01;100.00;101892.56;5053814;28;20093;-65
2024/01/31 02:43:26;;;;;;;21.93;14.60;;;;;;;-0.06;100.00;101887.53;5053689;28;20116;-69
2024/01/31 02:45:52;;;;;;;24.57;13.90;;;;;;;-0.29;100.00;101852.78;5053507;28;20251;-69
2024/01/31 02:48:17;;;;;;;21.57;13.83;;;;;;;-0.20;100.00;101868.09;5053799;28;20033;-67
2024/01/31 02:50:43;;;;;;;18.83;12.73;;;;;;;-0.20;100.00;101857.63;5053598;28;20045;-69
2024/01/31 02:53:08;;;;;;;20.13;13.10;;;;;;;-0.07;100.00;101866.66;5053417;28;20083;-68
2024/01/31 02:55:34;;;;;;;22.67;13.63;;;;;;;-0.08;100.00;101863.19;5053658;28;20144;-66
2024/01/31 02:57:59;;;;;;;22.60;14.50;;;;;;;-0.64;100.00;101774.88;5054623;28;20036;-66
2024/01/31 03:00:25;;;;;;;24.07;14.77;;;;;;;-0.19;100.00;101849.72;5054226;28;20037;-70
2024/01/31 03:02:50;;;;;;;21.47;13.13;;;;;;;-0.27;100.00;101825.66;5053495;28;20488;-67
2024/01/31 03:05:16;;;;;;;24.73;14.77;;;;;;;-0.20;100.00;101813.97;5053834;28;20044;-68
2024/01/31 03:07:41;;;;;;;22.80;13.73;;;;;;;0.00;100.00;101844.53;5053136;28;20402;-67
2024/01/31 03:10:07;;;;;;;26.97;15.10;;;;;;;0.02;100.00;101834.84;5053323;28;20465;-68
2024/01/31 03:12:33;;;;;;;26.00;14.17;;;;;;;-0.05;100.00;101815.06;5051523;28;20044;-70
2024/01/31 03:14:58;;;;;;;22.27;13.30;;;;;;;0.10;100.00;101835.31;5053386;28;20037;-67
2024/01/31 03:17:24;;;;;;;28.30;16.23;;;;;;;0.02;100.00;101826.97;5053505;28;20382;-71
2024/01/31 03:19:49;;;;;;;21.43;13.80;;;;;;;-0.13;100.00;101809.31;5053063;28;20064;-65
2024/01/31 03:22:15;;;;;;;23.23;15.63;;;;;;;-0.05;100.00;101821.13;5053103;28;20055;-66
2024/01/31 03:24:40;;;;;;;20.90;13.73;;;;;;;-0.08;100.00;101820.44;5053203;28;20051;-69
2024/01/31 03:27:06;;;;;;;23.53;15.37;;;;;;;-0.30;100.00;101768.16;5052744;28;20035;-68
2024/01/31 03:29:33;;;;;;;21.60;13.93;;;;;;;-0.23;100.00;101780.09;5051516;28;20040;-68
2024/01/31 03:31:58;;;;;;;22.23;14.33;;;;;;;-0.21;100.00;101778.25;5052845;28;20044;-69
2024/01/31 03:34:24;;;;;;;22.63;15.27;;;;;;;-0.16;100.00;101772.81;5053294;28;20643;-67
2024/01/31 03:36:49;;;;;;;25.20;15.20;;;;;;;-0.03;100.00;101800.13;5053606;28;20041;-67
2024/01/31 03:39:15;;;;;;;24.90;16.83;;;;;;;-0.13;100.00;101781.38;5052711;28;20037;-68
2024/01/31 03:41:46;;;;;;;22.50;13.30;;;;;;;-0.14;100.00;101773.59;5051330;28;20405;-67
2024/01/31 03:44:14;;;;;;;23.27;13.57;;;;;;;-0.04;100.00;101790.56;5051145;28;20033;-66
2024/01/31 03:46:40;;;;;;;21.02;13.88;;;;;;;-0.06;100.00;101784.53;5052647;28;20313;-66
2024/01/31 03:49:05;;;;;;;25.67;14.83;;;;;;;-0.11;100.00;101771.66;5051150;28;20044;-66
2024/01/31 03:51:31;;;;;;;23.27;15.63;;;;;;;-0.10;100.00;101775.97;5052087;28;20049;-69
2024/01/31 03:53:56;;;;;;;23.97;16.03;;;;;;;-0.10;100.00;101780.38;5052152;28;20082;-68
2024/01/31 03:56:22;;;;;;;23.10;14.53;;;;;;;-0.20;100.00;101759.00;5051854;28;20519;-68
2024/01/31 03:58:47;;;;;;;27.00;16.00;;;;;;;-0.04;100.00;101780.09;5050522;28;20041;-68
2024/01/31 04:01:16;;;;;;;23.40;14.17;;;;;;;-0.31;100.00;101733.28;5052033;28;20574;-67
2024/01/31 04:03:44;;;;;;;24.10;14.23;;;;;;;-0.09;100.00;101772.44;5052087;28;20042;-68
2024/01/31 04:06:10;;;;;;;21.60;13.53;;;;;;;-0.03;100.00;101766.91;5052979;28;20272;-68
2024/01/31 04:08:36;;;;;;;19.70;14.40;;;;;;;-0.34;100.00;101712.50;5034172;28;20272;-66
2024/01/31 04:11:02;;;;;;;22.80;14.73;;;;;;;-0.03;100.00;101766.06;5052488;28;20508;-68
2024/01/31 04:13:28;;;;;;;23.33;14.27;;;;;;;-0.23;100.00;101737.34;5051328;28;20482;-67
2024/01/31 04:15:54;;;;;;;20.57;12.23;;;;;;;-0.15;100.00;101745.69;5050730;28;20302;-66
2024/01/31 04:18:20;;;;;;;20.90;14.97;;;;;;;0.00;100.00;101758.09;5034084;28;20271;-68
2024/01/31 04:20:54;;;;;;;20.87;13.50;;;;;;;0.00;100.00;101750.25;5034763;28;20076;-70
2024/01/31 04:23:20;;;;;;;22.50;13.00;;;;;;;-0.20;100.00;101714.50;5051766;28;20042;-68
2024/01/31 04:26:10;;;;;;;21.20;12.47;;;;;;;-0.07;100.00;101727.84;5051541;28;20278;-70
2024/01/31 04:28:35;;;;;;;18.90;12.23;;;;;;;0.05;100.00;101736.94;5051649;28;20541;-67
2024/01/31 04:31:01;;;;;;;26.77;13.70;;;;;;;-0.02;100.00;101718.88;5051559;28;20414;-68
2024/01/31 04:33:26;;;;;;;21.10;12.47;;;;;;;0.01;100.00;101728.38;5050305;28;20128;-68
2024/01/31 04:35:51;;;;;;;24.97;13.47;;;;;;;0.10;100.00;101735.78;5051408;28;20488;-69
2024/01/31 04:38:17;;;;;;;20.47;12.03;;;;;;;-0.05;100.00;101705.06;5049955;28;20045;-69
2024/01/31 04:40:42;;;;;;;26.00;14.77;;;;;;;-0.14;100.00;101689.78;5050345;28;20058;-69
2024/01/31 04:43:08;;;;;;;21.33;14.17;;;;;;;0.15;100.00;101728.56;5050366;28;20106;-70
2024/01/31 04:45:33;;;;;;;25.77;13.00;;;;;;;0.17;100.00;101720.63;5051761;28;20045;-68
2024/01/31 04:48:08;;;;;;;24.13;13.87;;;;;;;0.11;100.00;101700.81;5050772;28;20502;-72
2024/01/31 04:50:34;;;;;;;19.87;12.03;;;;;;;0.17;100.00;101707.53;5051437;28;20055;-67
2024/01/31 04:52:59;;;;;;;21.97;11.63;;;;;;;-0.08;100.00;101652.84;5052412;28;20267;-65
2024/01/31 04:55:24;;;;;;;23.60;13.43;;;;;;;0.34;100.00;101706.75;5054398;28;20041;-66
2024/01/31 04:57:50;;;;;;;23.90;12.43;;;;;;;0.30;100.00;101693.78;5052628;28;20048;-68
2024/01/31 05:00:16;;;;;;;21.93;13.33;;;;;;;0.26;100.00;101686.97;5051007;28;20047;-67
2024/01/31 05:02:41;;;;;;;21.40;14.23;;;;;;;0.21;100.00;101677.66;5049711;28;20467;-67
2024/01/31 05:05:07;;;;;;;23.33;13.40;;;;;;;0.32;100.00;101709.44;5048776;28;20036;-64
2024/01/31 05:07:32;;;;;;;21.10;13.47;;;;;;;0.21;100.00;101683.72;5049459;28;20052;-69
2024/01/31 05:09:58;;;;;;;24.67;13.33;;;;;;;0.20;100.00;101684.66;5048991;28;20033;-69
2024/01/31 05:12:23;;;;;;;25.83;14.63;;;;;;;0.22;100.00;101688.03;5049592;28;20503;-65
2024/01/31 05:14:49;;;;;;;26.73;12.97;;;;;;;0.13;100.00;101667.53;5050225;28;20025;-68
2024/01/31 05:17:15;;;;;;;24.70;13.17;;;;;;;0.12;100.00;101659.75;5049950;28;20117;-68
2024/01/31 05:19:42;;;;;;;26.90;12.93;;;;;;;0.02;100.00;101648.88;5035366;28;20460;-66
2024/01/31 05:22:08;;;;;;;22.47;12.80;;;;;;;0.24;100.00;101675.72;5053936;28;20645;-66
2024/01/31 05:24:33;;;;;;;22.43;13.30;;;;;;;0.29;100.00;101662.44;5054038;28;20259;-65
2024/01/31 05:27:04;;;;;;;24.33;12.97;;;;;;;0.26;100.00;101668.63;5053128;28;20040;-67
2024/01/31 05:29:32;;;;;;;22.90;13.03;;;;;;;-0.09;100.00;101604.88;5052934;28;20123;-66
2024/01/31 05:31:58;;;;;;;20.80;13.00;;;;;;;0.27;100.00;101665.09;5054332;28;20271;-65
2024/01/31 05:34:23;;;;;;;22.90;12.33;;;;;;;0.36;100.00;101662.97;5053040;28;20081;-70
2024/01/31 05:36:49;;;;;;;21.00;12.40;;;;;;;0.30;100.00;101643.16;5054806;28;20047;-72
2024/01/31 05:39:14;;;;;;;28.03;15.20;;;;;;;0.44;100.00;101661.66;5054236;28;20478;-69
2024/01/31 05:41:44;;;;;;;21.50;13.47;;;;;;;0.39;100.00;101653.19;5053445;28;20079;-72
2024/01/31 05:44:10;;;;;;;28.60;13.70;;;;;;;0.17;100.00;101616.69;5054593;28;20094;-68
2024/01/31 05:46:36;;;;;;;24.77;12.97;;;;;;;0.35;100.00;101633.28;5054338;28;20553;-68
2024/01/31 05:49:04;;;;;;;25.63;13.07;;;;;;;0.44;100.00;101650.31;5052876;28;20366;-68
2024/01/31 05:51:29;;;;;;;29.67;12.70;;;;;;;0.36;100.00;101627.13;5040693;28;20034;-66
2024/01/31 05:53:55;;;;;;;22.83;11.23;;;;;;;0.42;100.00;101641.69;5038654;28;20536;-69
2024/01/31 05:56:21;;;;;;;25.33;15.00;;;;;;;0.53;100.00;101634.13;5049132;28;20041;-66
2024/01/31 05:58:47;;;;;;;20.57;11.80;;;;;;;0.59;100.00;101636.47;5044523;28;20086;-67
2024/01/31 06:01:12;;;;;;;26.50;12.47;;;;;;;0.30;100.00;101590.75;5045177;28;20037;-67
2024/01/31 06:03:38;;;;;;;25.37;13.13;;;;;;;0.48;100.00;101615.19;5039417;28;20128;-66
2024/01/31 06:06:04;;;;;;;22.23;12.23;;;;;;;0.54;100.00;101620.09;5039689;28;20045;-67
2024/01/31 06:08:29;;;;;;;21.50;12.07;;;;;;;0.53;100.00;101605.31;5040915;28;20037;-66
2024/01/31 06:11:02;;;;;;;21.17;12.17;;;;;;;0.58;100.00;101621.66;5048471;28;20818;-67
2024/01/31 06:13:29;;;;;;;22.57;11.50;;;;;;;0.56;100.00;101619.09;5046432;28;20059;-66
2024/01/31 06:15:54;;;;;;;19.33;12.00;;;;;;;0.64;100.00;101623.97;5044821;28;20334;-67
2024/01/31 06:18:22;;;;;;;18.20;10.33;;;;;;;0.55;100.00;101596.44;5047929;28;20422;-67
2024/01/31 06:20:49;;;;;;;21.85;11.65;;;;;;;0.56;100.00;101589.41;5047773;28;20073;-66
2024/01/31 06:23:16;;;;;;;20.73;11.27;;;;;;;0.69;100.00;101608.00;5053148;28;20080;-67
2024/01/31 06:25:41;;;;;;;16.50;10.63;;;;;;;0.66;100.00;101609.00;5053031;28;20437;-67
2024/01/31 06:28:07;;;;;;;19.37;11.07;;;;;;;0.67;100.00;101605.47;5044978;28;20352;-71
2024/01/31 06:30:40;;;;;;;20.30;11.53;;;;;;;0.38;100.00;101553.69;5037991;28;20494;-71
2024/01/31 06:33:10;;;;;;;16.20;8.87;;;;;;;0.56;100.00;101576.31;5039328;28;20408;-66
2024/01/31 06:35:36;;;;;;;22.20;13.03;;;;;;;0.69;100.00;101587.88;5039107;28;20346;-68
2024/01/31 06:38:03;;;;;;;19.57;10.00;;;;;;;0.43;100.00;101541.19;5043044;28;20283;-67
2024/01/31 06:40:30;;;;;;;20.93;10.67;;;;;;;0.67;100.00;101581.03;5020189;28;20710;-67
2024/01/31 06:42:56;;;;;;;20.00;11.90;;;;;;;0.21;100.00;101512.59;5038905;28;20276;-69
2024/01/31 06:45:24;;;;;;;19.03;10.67;;;;;;;0.73;100.00;101583.31;5028639;28;20266;-67
2024/01/31 06:47:50;;;;;;;21.38;11.27;;;;;;;0.68;100.00;101569.59;5037716;28;20052;-65
2024/01/31 06:50:16;;;;;;;20.50;11.30;;;;;;;0.84;100.00;101586.22;5034068;28;20052;-70
2024/01/31 06:52:41;;;;;;;17.83;10.30;;;;;;;0.84;100.00;101576.56;5069701;28;20259;-68
2024/01/31 06:55:07;;;;;;;20.57;11.00;;;;;;;0.69;100.00;101561.66;5035578;28;20086;-70
2024/01/31 06:57:34;;;;;;;17.93;11.43;;;;;;;0.80;100.00;101576.81;5040554;28;20417;-70
2024/01/31 07:00:01;;;;;;;25.70;12.40;;;;;;;0.75;100.00;101563.09;5044795;28;20052;-67
2024/01/31 07:02:26;;;;;;;17.03;11.30;;;;;;;0.82;100.00;101567.09;5039152;28;20818;-69
2024/01/31 07:04:52;;;;;;;15.63;9.47;;;;;;;0.96;100.00;101590.00;5038012;28;20395;-67
2024/01/31 07:07:17;;;;;;;19.53;11.63;;;;;;;0.85;100.00;101562.53;5047930;28;20075;-70
2024/01/31 07:09:42;;;;;;;16.57;10.97;;;;;;;0.97;100.00;101581.19;5051248;28;20036;-69
2024/01/31 07:12:08;;;;;;;18.73;10.93;;;;;;;0.95;100.00;101572.56;5039102;28;20420;-70
2024/01/31 07:14:33;;;;;;;19.83;13.27;;;;;;;0.95;100.00;101572.56;5031927;28;20423;-68
2024/01/31 07:16:59;;;;;;;19.03;12.53;;;;;;;0.82;100.00;101557.47;5051089;28;20500;-69
2024/01/31 07:19:24;;;;;;;21.80;12.83;;;;;;;0.80;100.00;101542.72;5050120;28;20492;-65
2024/01/31 07:21:50;;;;;;;21.97;11.87;;;;;;;0.78;100.00;101550.69;5042837;28;20049;-71
2024/01/31 07:24:16;;;;;;;20.70;11.70;;;;;;;0.78;100.00;101550.69;5040500;28;20037;-69
2024/01/31 07:26:42;;;;;;;19.87;12.17;;;;;;;0.80;100.00;101553.22;5045630;28;20401;-69
2024/01/31 07:29:08;;;;;;;20.20;13.07;;;;;;;0.73;100.00;101544.84;5045513;28;20292;-67
2024/01/31 07:31:34;;;;;;;22.10;12.87;;;;;;;0.89;100.00;101574.59;5040969;28;20041;-69
2024/01/31 07:33:59;;;;;;;20.23;12.40;;;;;;;0.88;100.00;101562.41;5048006;28;20045;-67
2024/01/31 07:36:25;;;;;;;18.50;12.47;;;;;;;0.67;100.00;101532.06;5053322;28;20132;-69
2024/01/31 07:38:50;;;;;;;19.77;12.00;;;;;;;0.83;100.00;101553.91;5054112;28;20082;-67
2024/01/31 07:41:16;;;;;;;21.80;12.77;;;;;;;0.86;100.00;101555.50;5047733;28;20044;-72
2024/01/31 07:43:42;;;;;;;20.67;12.07;;;;;;;0.90;100.00;101559.69;5046908;28;20141;-68
2024/01/31 07:46:08;;;;;;;25.07;13.27;;;;;;;0.83;100.00;101546.03;5053237;28;20029;-67
2024/01/31 07:48:34;;;;;;;20.77;12.87;;;;;;;0.81;100.00;101534.78;5043430;28;20276;-68
2024/01/31 07:51:04;;;;;;;22.50;12.73;;;;;;;1.03;100.00;101549.38;5050715;28;20298;-69
2024/01/31 07:53:30;;;;;;;18.60;12.57;;;;;;;1.03;100.00;101565.13;5044213;28;20033;-68
2024/01/31 07:55:56;;;;;;;21.53;12.73;;;;;;;0.92;100.00;101544.72;5053041;28;20366;-67
2024/01/31 07:58:21;;;;;;;19.53;13.53;;;;;;;1.06;100.00;101562.34;5052745;28;20041;-69
2024/01/31 08:00:47;;;;;;;24.07;13.93;;;;;;;1.10;100.00;101563.84;5046167;28;20048;-68
2024/01/31 08:03:12;;;;;;;21.63;12.33;;;;;;;1.14;100.00;101547.88;5035446;28;20041;-69
2024/01/31 08:05:38;;;;;;;20.50;11.90;;;;;;;1.07;100.00;101536.03;5046655;28;20385;-67
2024/01/31 08:08:04;;;;;;;17.27;12.73;;;;;;;1.17;100.00;101547.72;5045067;28;20041;-70
2024/01/31 08:10:29;;;;;;;25.73;14.40;;;;;;;1.18;100.00;101538.06;5042864;28;20041;-70
2024/01/31 08:12:54;;;;;;;20.00;12.77;;;;;;;1.25;100.00;101544.69;5030472;28;20067;-69
2024/01/31 08:15:21;;;;;;;18.50;11.80;;;;;;;1.31;100.00;101549.59;5041275;28;20052;-69
2024/01/31 08:17:47;;;;;;;19.83;11.77;;;;;;;1.26;100.00;101551.63;5038510;28;20034;-72
2024/01/31 08:20:16;;;;;;;19.13;12.43;;;;;;;1.21;100.00;101545.78;5048009;28;20299;-69
2024/01/31 08:22:42;;;;;;;19.40;12.83;;;;;;;1.17;100.00;101546.88;5034488;28;20527;-68
2024/01/31 08:25:08;;;;;;;20.27;13.93;;;;;;;1.01;100.00;101530.25;5043648;28;20256;-67
2024/01/31 08:27:34;;;;;;;18.97;11.50;;;;;;;1.05;100.00;101526.53;5052343;28;20092;-69
2024/01/31 08:29:59;;;;;;;24.93;13.60;;;;;;;1.03;100.00;101510.88;5041883;28;20822;-72
2024/01/31 08:32:25;;;;;;;21.17;13.10;;;;;;;1.03;100.00;101512.66;5045370;28;20377;-68
2024/01/31 08:34:50;;;;;;;22.03;12.40;;;;;;;1.08;100.00;101521.13;5043803;28;20037;-71
2024/01/31 08:37:16;;;;;;;18.30;12.27;;;;;;;1.09;100.00;101517.56;5034770;28;20037;-68
2024/01/31 08:39:42;;;;;;;19.60;12.40;;;;;;;1.21;100.00;101548.41;5046033;28;20468;-69
2024/01/31 08:42:08;;;;;;;21.60;12.87;;;;;;;0.95;100.00;101502.59;5035421;28;20045;-69
2024/01/31 08:44:34;;;;;;;21.27;13.20;;;;;;;1.10;100.00;101520.09;5036945;28;20029;-71
2024/01/31 08:46:59;;;;;;;23.17;13.30;;;;;;;1.12;100.00;101543.63;5046221;28;20294;-70
2024/01/31 08:49:24;;;;;;;23.47;13.17;;;;;;;1.04;100.00;101525.69;5034839;28;20040;-69
2024/01/31 08:51:51;;;;;;;24.27;14.90;;;;;;;1.10;100.00;101530.59;5041904;28;20049;-70
2024/01/31 08:54:16;;;;;;;21.90;11.63;;;;;;;1.11;100.00;101518.31;5044257;28;20044;-70
2024/01/31 08:56:42;;;;;;;24.50;12.70;;;;;;;1.26;100.00;101522.75;5046180;28;20312;-70
2024/01/31 08:59:07;;;;;;;24.53;14.70;;;;;;;1.19;100.00;101503.88;5041966;28;20073;-72
2024/01/31 09:01:33;;;;;;;21.60;12.70;;;;;;;1.30;100.00;101521.66;5034816;28;20064;-69
2024/01/31 09:03:58;;;;;;;23.80;12.90;;;;;;;0.26;100.00;101363.88;5039250;28;20124;-68
2024/01/31 09:06:24;;;;;;;20.63;13.57;;;;;;;1.18;100.00;101506.59;5034466;28;20777;-67
2024/01/31 09:08:49;;;;;;;17.90;12.53;;;;;;;1.24;100.00;101507.09;5042399;28;20230;-68
2024/01/31 09:11:15;;;;;;;23.13;13.43;;;;;;;0.77;100.00;101423.13;5040480;28;20043;-69
2024/01/31 09:13:43;;;;;;;24.83;14.00;;;;;;;1.22;100.00;101490.59;5045357;28;20047;-70
2024/01/31 09:16:09;;;;;;;20.73;14.45;;;;;;;0.67;100.00;101395.75;5036749;28;20136;-70
2024/01/31 09:18:35;;;;;;;22.50;13.07;;;;;;;1.47;100.00;101511.06;5017851;28;20071;-71
2024/01/31 09:21:01;;;;;;;21.20;12.40;;;;;;;1.33;100.00;101495.22;5039360;28;20052;-68
2024/01/31 09:23:27;;;;;;;24.90;13.47;;;;;;;1.14;100.00;101452.56;5043911;28;20034;-68
2024/01/31 09:25:52;;;;;;;22.83;13.70;;;;;;;1.51;100.00;101509.13;5047498;28;20298;-68
2024/01/31 09:28:19;;;;;;;21.73;12.20;;;;;;;1.41;100.00;101486.94;5041964;28;20037;-68
2024/01/31 09:30:44;;;;;;;20.17;12.90;;;;;;;1.36;100.00;101479.31;5040678;28;20033;-70
2024/01/31 09:33:10;;;;;;;24.50;13.43;;;;;;;1.49;100.00;101506.59;5043840;28;20267;-68
2024/01/31 09:35:36;;;;;;;25.30;14.27;;;;;;;1.47;100.00;101497.94;5037404;28;20049;-68
2024/01/31 09:38:02;;;;;;;24.37;13.83;;;;;;;1.48;100.00;101496.16;5045242;28;20067;-70
2024/01/31 09:40:31;;;;;;;21.23;12.70;;;;;;;1.12;100.00;101428.22;5041027;28;20071;-70
2024/01/31 09:42:57;;;;;;;26.27;14.23;;;;;;;1.47;100.00;101476.94;5039190;28;20299;-69
2024/01/31 09:45:25;;;;;;;30.60;14.30;;;;;;;1.49;100.00;101479.47;5042878;28;20488;-68
2024/01/31 09:47:52;;;;;;;32.20;15.00;;;;;;;1.54;100.00;101483.53;5036192;28;20449;-68
2024/01/31 09:50:19;;;;;;;20.67;13.10;;;;;;;1.55;100.00;101487.84;5035444;28;20636;-71
2024/01/31 09:52:52;;;;;;;25.10;15.17;;;;;;;1.54;100.00;101478.28;5038899;28;20284;-69
2024/01/31 09:55:22;;;;;;;22.70;13.53;;;;;;;1.47;100.00;101455.94;5039798;28;20338;-68
2024/01/31 09:57:47;;;;;;;23.20;13.73;;;;;;;1.47;100.00;101434.09;5039701;28;20291;-71
2024/01/31 10:00:13;;;;;;;22.47;13.60;;;;;;;1.74;100.00;101464.03;5042311;28;20294;-71
2024/01/31 10:02:40;;;;;;;21.10;15.30;;;;;;;1.59;100.00;101437.78;5044133;28;20110;-71
2024/01/31 10:05:06;;;;;;;24.43;14.20;;;;;;;1.78;100.00;101454.19;5047249;28;20608;-70
2024/01/31 10:07:32;;;;;;;23.10;13.77;;;;;;;1.71;100.00;101426.56;5042308;28;20365;-70
2024/01/31 10:10:18;;;;;;;24.23;14.10;;;;;;;1.71;100.00;101426.56;5042560;28;20718;-71
2024/01/31 10:12:43;;;;;;;20.17;12.70;;;;;;;1.78;100.00;101433.19;5052813;28;20037;-71
2024/01/31 10:15:09;;;;;;;23.17;13.63;;;;;;;1.71;100.00;101419.53;5044208;28;20310;-69
2024/01/31 10:17:35;;;;;;;22.47;15.07;;;;;;;1.71;100.00;101408.19;5041787;28;20118;-71
2024/01/31 10:20:06;;;;;;;24.03;13.63;;;;;;;1.68;100.00;101405.75;5042496;28;20049;-68
2024/01/31 10:22:33;;;;;;;22.30;13.00;;;;;;;1.66;100.00;101405.00;5048300;28;21207;-70
2024/01/31 10:24:58;;;;;;;19.70;12.33;;;;;;;1.70;100.00;101419.63;5041356;28;20597;-68
2024/01/31 10:27:24;;;;;;;20.67;13.87;;;;;;;1.67;100.00;101404.91;5041302;28;20346;-68
2024/01/31 10:29:49;;;;;;;24.27;14.60;;;;;;;1.68;100.00;101416.25;5042225;28;20064;-67
2024/01/31 10:32:15;;;;;;;25.17;12.80;;;;;;;1.68;100.00;101411.84;5042909;28;20075;-69
2024/01/31 10:34:42;;;;;;;20.97;12.10;;;;;;;1.64;100.00;101384.06;5042682;28;20516;-69
2024/01/31 10:37:09;;;;;;;20.53;13.40;;;;;;;1.70;100.00;101372.34;5041997;28;20033;-71
2024/01/31 10:39:38;;;;;;;21.10;14.73;;;;;;;1.79;100.00;101374.47;5038899;28;20299;-70
2024/01/31 10:42:04;;;;;;;25.42;14.90;;;;;;;1.85;100.00;101376.72;5044420;28;20364;-74
2024/01/31 10:44:31;;;;;;;29.53;15.83;;;;;;;1.89;100.00;101372.13;5040720;28;20122;-69
2024/01/31 10:46:57;;;;;;;23.43;13.57;;;;;;;1.80;100.00;101368.28;5034693;28;20667;-72
2024/01/31 10:49:22;;;;;;;23.83;14.10;;;;;;;1.71;100.00;101347.78;5037525;28;20268;-71
2024/01/31 10:51:51;;;;;;;25.10;14.97;;;;;;;1.78;100.00;101359.66;5042259;28;20045;-69
2024/01/31 10:54:21;;;;;;;29.02;15.27;;;;;;;1.77;100.00;101360.59;5046769;28;20045;-70
2024/01/31 10:56:47;;;;;;;28.80;16.17;;;;;;;1.82;100.00;101369.03;5040762;28;20045;-72
2024/01/31 10:59:12;;;;;;;28.13;16.50;;;;;;;1.73;100.00;101356.41;5050165;28;20331;-72
2024/01/31 11:01:48;;;;;;;27.43;16.07;;;;;;;1.65;100.00;101335.03;5043550;28;21048;-71